Time;durP1;ratioP1;P1;durP2;ratioP2;P2;SDS_P1;SDS_P2;PMS_P1;PMS_P2;Temp;Humidity;BMP_temperature;BMP_pressure;BME280_temperature;BME280_humidity;BME280_pressure;Samples;Min_cycle;Max_cycle;Signal;HPM_P1;HPM_P2
2021/09/23 00:00:04;;;;;;;2.70;1.73;;;;;;;;;;5091685;28;20062;-78
2021/09/23 00:05:16;;;;;;;2.75;1.60;;;;;;;;;;5067272;28;20089;-78
2021/09/23 00:07:43;;;;;;;2.65;1.58;;;;;;;;;;5094116;28;20071;-79
2021/09/23 00:10:11;;;;;;;2.53;1.40;;;;;;;;;;5079331;28;20476;-78
2021/09/23 00:12:37;;;;;;;3.55;1.50;;;;;;;;;;5092567;28;20124;-76
2021/09/23 00:15:05;;;;;;;3.38;1.63;;;;;;;;;;5087553;27;20060;-77
2021/09/23 00:17:31;;;;;;;3.03;1.60;;;;;;;;;;5091604;28;20097;-79
2021/09/23 00:19:57;;;;;;;3.25;1.50;;;;;;;;;;5091417;27;20060;-76
2021/09/23 00:22:24;;;;;;;3.17;1.70;;;;;;;;;;5092216;27;20068;-76
2021/09/23 00:24:50;;;;;;;3.20;2.03;;;;;;;;;;5087199;28;20063;-76
2021/09/23 00:27:17;;;;;;;4.97;1.80;;;;;;;;;;5092633;27;20044;-76
2021/09/23 00:29:43;;;;;;;3.15;1.73;;;;;;;;;;5085136;28;20059;-77
2021/09/23 00:32:10;;;;;;;2.38;1.50;;;;;;;;;;5085141;27;20402;-78
2021/09/23 00:34:36;;;;;;;3.88;1.60;;;;;;;;;;5093415;27;20125;-77
2021/09/23 00:37:02;;;;;;;3.47;1.60;;;;;;;;;;5089057;27;20063;-78
2021/09/23 00:39:29;;;;;;;2.85;1.55;;;;;;;;;;5071948;28;20075;-78
2021/09/23 00:41:57;;;;;;;3.85;1.27;;;;;;;;;;5078399;28;20056;-77
2021/09/23 00:44:23;;;;;;;2.60;1.42;;;;;;;;;;5075956;28;20759;-78
2021/09/23 00:46:51;;;;;;;3.35;1.85;;;;;;;;;;5083639;28;20036;-77
2021/09/23 00:49:17;;;;;;;4.30;1.75;;;;;;;;;;5090062;28;20134;-78
2021/09/23 00:51:45;;;;;;;4.82;1.60;;;;;;;;;;5089706;28;20129;-77
2021/09/23 00:54:11;;;;;;;2.67;1.30;;;;;;;;;;5088800;28;20104;-77
2021/09/23 00:56:38;;;;;;;2.78;1.63;;;;;;;;;;5083056;28;20064;-78
2021/09/23 00:59:05;;;;;;;3.33;1.55;;;;;;;;;;5086259;28;20156;-77
2021/09/23 01:01:31;;;;;;;4.03;1.80;;;;;;;;;;5086946;28;20512;-78
2021/09/23 01:03:58;;;;;;;2.60;1.45;;;;;;;;;;5084909;28;20112;-78
2021/09/23 01:06:24;;;;;;;4.53;1.45;;;;;;;;;;5082028;28;20039;-77
2021/09/23 01:08:58;;;;;;;2.15;1.45;;;;;;;;;;5086697;28;20431;-78
2021/09/23 01:11:26;;;;;;;2.97;1.90;;;;;;;;;;5086196;27;20043;-77
2021/09/23 01:13:53;;;;;;;3.13;1.65;;;;;;;;;;5085053;28;20557;-77
2021/09/23 01:16:19;;;;;;;2.95;1.73;;;;;;;;;;5088350;28;20117;-77
2021/09/23 01:18:45;;;;;;;2.67;1.45;;;;;;;;;;5087007;28;20068;-77
2021/09/23 01:21:12;;;;;;;2.75;1.50;;;;;;;;;;5087996;28;20067;-78
2021/09/23 01:23:39;;;;;;;2.72;1.33;;;;;;;;;;5089600;28;20059;-77
2021/09/23 01:26:13;;;;;;;4.25;1.73;;;;;;;;;;5075639;28;20090;-77
2021/09/23 01:28:40;;;;;;;3.17;1.65;;;;;;;;;;5080090;28;20036;-77
2021/09/23 01:31:07;;;;;;;4.22;1.70;;;;;;;;;;5085854;28;20071;-78
2021/09/23 01:33:33;;;;;;;3.08;1.70;;;;;;;;;;5083406;28;20064;-78
2021/09/23 01:36:00;;;;;;;3.13;1.92;;;;;;;;;;5087087;28;20063;-78
2021/09/23 01:38:27;;;;;;;3.70;1.75;;;;;;;;;;5073955;28;20052;-78
2021/09/23 01:40:54;;;;;;;3.40;1.77;;;;;;;;;;5064862;28;20060;-77
2021/09/23 01:43:21;;;;;;;2.80;1.40;;;;;;;;;;5077520;28;20074;-78
2021/09/23 01:45:48;;;;;;;2.50;1.55;;;;;;;;;;5072526;28;20076;-78
2021/09/23 01:48:14;;;;;;;4.72;1.40;;;;;;;;;;5061181;28;20545;-78
2021/09/23 01:50:41;;;;;;;3.13;1.60;;;;;;;;;;5075117;28;20064;-78
2021/09/23 01:53:07;;;;;;;3.30;1.50;;;;;;;;;;5082764;28;20499;-77
2021/09/23 01:55:33;;;;;;;3.20;1.92;;;;;;;;;;5079987;28;20070;-78
2021/09/23 01:58:00;;;;;;;4.07;1.85;;;;;;;;;;5076906;28;20087;-78
2021/09/23 02:00:27;;;;;;;2.92;1.73;;;;;;;;;;5065520;28;20055;-78
2021/09/23 02:02:54;;;;;;;2.88;1.30;;;;;;;;;;5084267;28;20125;-77
2021/09/23 02:05:21;;;;;;;3.15;1.58;;;;;;;;;;5087522;28;20048;-78
2021/09/23 02:07:47;;;;;;;2.92;1.65;;;;;;;;;;5082273;28;20568;-78
2021/09/23 02:10:14;;;;;;;2.72;1.70;;;;;;;;;;5069211;28;20060;-78
2021/09/23 02:12:40;;;;;;;2.20;1.67;;;;;;;;;;5074293;28;20538;-78
2021/09/23 02:15:07;;;;;;;2.60;1.60;;;;;;;;;;5066315;28;20075;-78
2021/09/23 02:17:34;;;;;;;2.90;1.60;;;;;;;;;;5068323;28;20500;-78
2021/09/23 02:20:00;;;;;;;3.25;1.80;;;;;;;;;;5076796;28;20515;-78
2021/09/23 02:22:27;;;;;;;3.80;1.75;;;;;;;;;;5077968;28;20535;-78
2021/09/23 02:24:54;;;;;;;3.88;1.88;;;;;;;;;;5068576;28;20438;-78
2021/09/23 02:27:21;;;;;;;3.35;1.65;;;;;;;;;;5058267;28;20060;-78
2021/09/23 02:29:47;;;;;;;2.97;1.77;;;;;;;;;;5065304;28;20060;-78
2021/09/23 02:32:14;;;;;;;2.72;1.60;;;;;;;;;;5070367;28;20543;-77
2021/09/23 02:34:40;;;;;;;4.05;1.60;;;;;;;;;;5076915;28;20121;-77
2021/09/23 02:37:07;;;;;;;3.63;1.80;;;;;;;;;;5082628;28;20790;-78
2021/09/23 02:39:34;;;;;;;4.05;1.52;;;;;;;;;;5083325;28;20064;-78
2021/09/23 02:42:00;;;;;;;3.10;1.50;;;;;;;;;;5086495;28;20055;-77
2021/09/23 02:44:27;;;;;;;4.00;1.80;;;;;;;;;;5086709;28;20115;-78
2021/09/23 02:46:53;;;;;;;3.78;2.03;;;;;;;;;;5083379;28;20121;-78
2021/09/23 02:49:19;;;;;;;2.90;1.58;;;;;;;;;;5078113;28;20129;-78
2021/09/23 02:51:46;;;;;;;3.47;1.58;;;;;;;;;;5084224;28;20705;-78
2021/09/23 02:54:12;;;;;;;2.60;1.50;;;;;;;;;;5082763;28;20064;-78
2021/09/23 02:56:39;;;;;;;3.38;1.70;;;;;;;;;;5085525;28;20101;-78
2021/09/23 02:59:05;;;;;;;2.72;1.58;;;;;;;;;;5082556;28;20064;-78
2021/09/23 03:01:31;;;;;;;4.18;1.77;;;;;;;;;;5076678;28;20193;-78
2021/09/23 03:03:58;;;;;;;3.45;1.70;;;;;;;;;;5085396;28;20066;-78
2021/09/23 03:06:24;;;;;;;2.78;1.50;;;;;;;;;;5084621;28;20067;-78
2021/09/23 03:08:51;;;;;;;3.08;1.77;;;;;;;;;;5085838;28;20063;-78
2021/09/23 03:11:17;;;;;;;2.55;1.55;;;;;;;;;;5085507;28;20063;-78
2021/09/23 03:13:44;;;;;;;2.95;1.60;;;;;;;;;;5086665;28;20056;-78
2021/09/23 03:16:10;;;;;;;2.97;1.48;;;;;;;;;;5085612;28;20075;-78
2021/09/23 03:18:37;;;;;;;3.42;1.75;;;;;;;;;;5082013;28;20055;-77
2021/09/23 03:21:03;;;;;;;2.70;1.90;;;;;;;;;;5084338;28;20060;-77
2021/09/23 03:23:30;;;;;;;2.88;1.75;;;;;;;;;;5085498;28;20132;-77
2021/09/23 03:25:56;;;;;;;2.90;1.75;;;;;;;;;;5086593;28;20064;-77
2021/09/23 03:28:23;;;;;;;3.60;2.22;;;;;;;;;;5083723;28;20052;-78
2021/09/23 03:30:50;;;;;;;3.60;1.80;;;;;;;;;;5084169;28;20511;-76
2021/09/23 03:33:16;;;;;;;4.15;2.08;;;;;;;;;;5081081;28;20072;-77
2021/09/23 03:35:43;;;;;;;4.28;1.80;;;;;;;;;;5085561;28;20071;-77
2021/09/23 03:38:09;;;;;;;4.00;1.85;;;;;;;;;;5083574;28;20060;-77
2021/09/23 03:40:36;;;;;;;3.50;1.75;;;;;;;;;;5083599;28;20455;-77
2021/09/23 03:43:03;;;;;;;5.82;2.13;;;;;;;;;;5081193;28;20028;-78
2021/09/23 03:45:29;;;;;;;3.63;1.88;;;;;;;;;;5080015;28;20079;-77
2021/09/23 03:47:56;;;;;;;3.35;1.98;;;;;;;;;;5082517;28;20067;-76
2021/09/23 03:50:22;;;;;;;3.70;1.65;;;;;;;;;;5083680;28;20090;-77
2021/09/23 03:52:48;;;;;;;4.45;1.80;;;;;;;;;;5084503;28;20479;-77
2021/09/23 03:55:18;;;;;;;3.17;1.80;;;;;;;;;;5072345;28;20090;-77
2021/09/23 03:57:45;;;;;;;3.97;2.00;;;;;;;;;;5086706;28;20051;-77
2021/09/23 04:00:12;;;;;;;2.78;1.83;;;;;;;;;;5083151;28;20071;-77
2021/09/23 04:02:39;;;;;;;3.00;1.75;;;;;;;;;;5085071;28;20056;-77
2021/09/23 04:05:05;;;;;;;4.53;1.90;;;;;;;;;;5084754;28;20060;-77
2021/09/23 04:07:31;;;;;;;2.92;1.90;;;;;;;;;;5085341;28;20063;-77
2021/09/23 04:09:58;;;;;;;4.00;1.67;;;;;;;;;;5084227;28;20066;-77
2021/09/23 04:12:24;;;;;;;3.65;1.77;;;;;;;;;;5086970;28;20056;-77
2021/09/23 04:14:51;;;;;;;3.58;2.00;;;;;;;;;;5088460;28;20028;-77
2021/09/23 04:17:21;;;;;;;4.55;1.92;;;;;;;;;;5086126;28;20451;-77
2021/09/23 04:19:47;;;;;;;3.67;1.73;;;;;;;;;;5087401;28;20051;-77
2021/09/23 04:22:14;;;;;;;3.97;1.70;;;;;;;;;;5087814;28;20078;-77
2021/09/23 04:24:40;;;;;;;3.05;1.92;;;;;;;;;;5082483;28;20051;-77
2021/09/23 04:27:06;;;;;;;3.72;1.90;;;;;;;;;;5088388;28;20071;-77
2021/09/23 04:29:33;;;;;;;2.80;1.80;;;;;;;;;;5088261;28;20093;-78
2021/09/23 04:32:00;;;;;;;2.78;1.70;;;;;;;;;;5085689;28;20475;-77
2021/09/23 04:34:27;;;;;;;4.32;1.85;;;;;;;;;;5080465;28;20548;-78
2021/09/23 04:36:53;;;;;;;4.22;1.95;;;;;;;;;;5079728;28;20772;-78
2021/09/23 04:39:19;;;;;;;4.35;1.83;;;;;;;;;;5088173;28;20515;-78
2021/09/23 04:41:46;;;;;;;2.40;1.65;;;;;;;;;;5080789;28;20056;-76
2021/09/23 04:44:12;;;;;;;3.28;1.70;;;;;;;;;;5068580;28;20045;-76
2021/09/23 04:46:39;;;;;;;4.68;1.80;;;;;;;;;;5082600;28;20056;-75
2021/09/23 04:49:05;;;;;;;5.75;2.13;;;;;;;;;;5088965;28;20056;-76
2021/09/23 04:51:31;;;;;;;4.68;1.95;;;;;;;;;;5085431;28;20063;-76
2021/09/23 04:54:00;;;;;;;4.53;2.05;;;;;;;;;;5079370;28;20508;-76
2021/09/23 04:56:26;;;;;;;3.85;2.15;;;;;;;;;;5086431;28;20055;-76
2021/09/23 04:58:53;;;;;;;4.40;2.60;;;;;;;;;;5086689;28;20032;-76
2021/09/23 05:01:19;;;;;;;5.22;2.80;;;;;;;;;;5085263;28;20508;-76
2021/09/23 05:03:45;;;;;;;4.68;2.20;;;;;;;;;;5087131;28;20068;-77
2021/09/23 05:06:12;;;;;;;3.25;1.92;;;;;;;;;;5089161;28;20412;-76
2021/09/23 05:08:39;;;;;;;4.78;2.35;;;;;;;;;;5087233;28;20063;-76
2021/09/23 05:11:06;;;;;;;4.55;2.10;;;;;;;;;;5082389;28;20063;-76
2021/09/23 05:13:32;;;;;;;3.25;1.85;;;;;;;;;;5081803;28;20442;-76
2021/09/23 05:15:59;;;;;;;5.82;2.60;;;;;;;;;;5083638;28;20078;-75
2021/09/23 05:18:25;;;;;;;4.50;2.05;;;;;;;;;;5087867;28;20055;-75
2021/09/23 05:20:52;;;;;;;5.53;2.22;;;;;;;;;;5081378;28;20717;-76
2021/09/23 05:23:19;;;;;;;5.10;2.03;;;;;;;;;;5087480;28;20074;-75
2021/09/23 05:25:47;;;;;;;5.03;1.83;;;;;;;;;;5088479;27;20721;-76
2021/09/23 05:28:13;;;;;;;4.03;1.88;;;;;;;;;;5086991;28;20108;-77
2021/09/23 05:30:40;;;;;;;3.72;1.73;;;;;;;;;;5088084;28;20083;-77
2021/09/23 05:33:08;;;;;;;4.30;1.73;;;;;;;;;;5069690;28;20425;-76
2021/09/23 05:35:34;;;;;;;3.08;1.65;;;;;;;;;;5078130;28;20068;-77
2021/09/23 05:38:01;;;;;;;3.40;1.80;;;;;;;;;;5076481;28;20185;-78
2021/09/23 05:40:27;;;;;;;3.72;1.80;;;;;;;;;;5088548;28;20064;-78
2021/09/23 05:42:54;;;;;;;3.67;2.28;;;;;;;;;;5078138;28;20060;-80
2021/09/23 05:45:20;;;;;;;5.15;2.17;;;;;;;;;;5065567;28;20064;-82
2021/09/23 05:47:46;;;;;;;3.33;1.90;;;;;;;;;;5077061;28;20067;-81
2021/09/23 05:50:13;;;;;;;4.50;1.88;;;;;;;;;;5083303;28;20130;-81
2021/09/23 05:52:40;;;;;;;2.63;1.77;;;;;;;;;;5069987;28;20072;-81
2021/09/23 05:55:07;;;;;;;3.28;1.80;;;;;;;;;;5077082;28;20204;-81
2021/09/23 05:57:34;;;;;;;4.70;2.15;;;;;;;;;;5086042;28;20634;-79
2021/09/23 06:00:11;;;;;;;4.38;1.80;;;;;;;;;;5083787;28;20487;-77
2021/09/23 06:02:37;;;;;;;3.92;1.98;;;;;;;;;;5086887;28;20036;-78
2021/09/23 06:05:04;;;;;;;4.88;2.08;;;;;;;;;;5086306;28;20070;-78
2021/09/23 06:07:30;;;;;;;3.70;1.73;;;;;;;;;;5088606;28;20073;-78
2021/09/23 06:09:57;;;;;;;6.05;2.20;;;;;;;;;;5060901;28;20108;-81
2021/09/23 06:12:23;;;;;;;3.03;2.10;;;;;;;;;;5086271;28;20531;-78
2021/09/23 06:14:50;;;;;;;3.47;1.80;;;;;;;;;;5079267;28;20136;-79
2021/09/23 06:17:17;;;;;;;2.47;1.65;;;;;;;;;;5062547;28;20125;-78
2021/09/23 06:19:43;;;;;;;4.07;1.70;;;;;;;;;;5068327;28;20057;-78
2021/09/23 06:22:10;;;;;;;4.72;1.70;;;;;;;;;;5086119;28;20068;-78
2021/09/23 06:24:37;;;;;;;3.55;1.98;;;;;;;;;;5085378;28;20040;-78
2021/09/23 06:27:03;;;;;;;4.00;1.67;;;;;;;;;;5085151;28;20055;-78
2021/09/23 06:29:30;;;;;;;3.47;2.20;;;;;;;;;;5085209;28;20051;-78
2021/09/23 06:31:56;;;;;;;3.97;1.88;;;;;;;;;;5084829;28;20491;-77
2021/09/23 06:34:24;;;;;;;4.55;1.80;;;;;;;;;;5076809;28;20029;-78
2021/09/23 06:36:50;;;;;;;3.35;1.80;;;;;;;;;;5085962;28;20055;-78
2021/09/23 06:39:16;;;;;;;2.85;1.88;;;;;;;;;;5086825;28;20503;-78
2021/09/23 06:41:43;;;;;;;3.83;2.20;;;;;;;;;;5086362;28;20039;-78
2021/09/23 06:44:10;;;;;;;2.90;1.65;;;;;;;;;;5080186;28;22465;-78
2021/09/23 06:46:36;;;;;;;2.80;1.80;;;;;;;;;;5081766;28;20105;-77
2021/09/23 06:49:03;;;;;;;3.80;1.65;;;;;;;;;;5086463;28;20028;-78
2021/09/23 06:51:29;;;;;;;3.92;1.88;;;;;;;;;;5088926;28;20051;-78
2021/09/23 06:53:57;;;;;;;3.05;1.83;;;;;;;;;;5085052;28;20064;-79
2021/09/23 06:56:23;;;;;;;3.53;2.45;;;;;;;;;;5079961;28;20471;-79
2021/09/23 06:58:49;;;;;;;3.42;1.77;;;;;;;;;;5080173;28;20499;-78
2021/09/23 07:01:16;;;;;;;2.28;1.40;;;;;;;;;;5085860;28;20373;-78
2021/09/23 07:03:42;;;;;;;3.50;1.85;;;;;;;;;;5068018;28;20040;-77
2021/09/23 07:06:08;;;;;;;3.28;1.73;;;;;;;;;;5084556;28;20040;-78
2021/09/23 07:08:35;;;;;;;4.57;1.80;;;;;;;;;;5074743;28;20520;-77
2021/09/23 07:11:03;;;;;;;2.95;1.90;;;;;;;;;;5077538;28;20064;-77
2021/09/23 07:13:30;;;;;;;1.83;1.45;;;;;;;;;;5078383;28;20074;-77
2021/09/23 07:15:59;;;;;;;4.10;2.05;;;;;;;;;;5076319;28;20576;-77
2021/09/23 07:18:26;;;;;;;4.80;1.88;;;;;;;;;;5087111;28;20082;-77
2021/09/23 07:20:55;;;;;;;3.92;1.35;;;;;;;;;;5086357;28;20051;-78
2021/09/23 07:23:22;;;;;;;3.65;1.60;;;;;;;;;;5086046;28;20040;-77
2021/09/23 07:25:49;;;;;;;5.28;2.17;;;;;;;;;;5066875;28;20082;-77
2021/09/23 07:28:15;;;;;;;3.38;1.75;;;;;;;;;;5084328;28;20428;-79
2021/09/23 07:30:42;;;;;;;3.17;1.70;;;;;;;;;;5079736;28;20063;-79
2021/09/23 07:33:08;;;;;;;2.78;1.70;;;;;;;;;;5067105;28;20053;-78
2021/09/23 07:35:35;;;;;;;2.22;1.50;;;;;;;;;;5076496;28;20515;-77
2021/09/23 07:38:02;;;;;;;2.85;1.60;;;;;;;;;;5084383;28;20164;-77
2021/09/23 07:40:28;;;;;;;3.88;2.00;;;;;;;;;;5083361;28;20072;-77
2021/09/23 07:42:55;;;;;;;2.88;1.52;;;;;;;;;;5082258;28;20063;-77
2021/09/23 07:45:21;;;;;;;2.33;1.58;;;;;;;;;;5070983;28;20522;-77
2021/09/23 07:47:48;;;;;;;2.95;1.60;;;;;;;;;;5089518;28;20097;-78
2021/09/23 07:50:14;;;;;;;2.58;1.35;;;;;;;;;;5086605;28;20078;-78
2021/09/23 07:52:41;;;;;;;3.35;1.80;;;;;;;;;;5086345;28;20068;-77
2021/09/23 07:55:07;;;;;;;3.35;1.70;;;;;;;;;;5053228;28;20053;-77
2021/09/23 07:57:35;;;;;;;3.70;1.70;;;;;;;;;;5061417;28;20122;-79
2021/09/23 08:00:02;;;;;;;2.55;1.60;;;;;;;;;;5081617;28;20110;-79
2021/09/23 08:02:28;;;;;;;2.90;1.65;;;;;;;;;;5073467;28;20175;-77
2021/09/23 08:04:54;;;;;;;3.17;1.60;;;;;;;;;;5078647;28;20068;-78
2021/09/23 08:07:21;;;;;;;2.53;1.42;;;;;;;;;;5088154;28;20051;-78
2021/09/23 08:09:47;;;;;;;4.15;1.85;;;;;;;;;;5090620;28;20074;-78
2021/09/23 08:12:14;;;;;;;3.50;1.30;;;;;;;;;;5085935;28;20145;-78
2021/09/23 08:14:40;;;;;;;3.22;1.58;;;;;;;;;;5080294;28;20040;-78
2021/09/23 08:17:07;;;;;;;4.75;1.80;;;;;;;;;;5075892;28;20068;-78
2021/09/23 08:19:37;;;;;;;2.67;1.35;;;;;;;;;;5083709;28;20055;-78
2021/09/23 08:22:04;;;;;;;3.75;1.60;;;;;;;;;;5089560;28;20146;-78
2021/09/23 08:24:31;;;;;;;3.17;1.65;;;;;;;;;;5089609;28;20028;-78
2021/09/23 08:26:57;;;;;;;2.05;1.20;;;;;;;;;;5086997;28;20492;-78
2021/09/23 08:29:24;;;;;;;4.20;1.73;;;;;;;;;;5062130;28;20455;-78
2021/09/23 08:31:51;;;;;;;3.78;1.75;;;;;;;;;;5067854;28;20044;-79
2021/09/23 08:34:17;;;;;;;3.30;1.73;;;;;;;;;;5070243;28;20032;-78
2021/09/23 08:36:45;;;;;;;3.28;1.45;;;;;;;;;;5086781;28;20071;-77
2021/09/23 08:39:11;;;;;;;3.33;1.52;;;;;;;;;;5070491;28;20487;-78
2021/09/23 08:41:38;;;;;;;2.58;1.50;;;;;;;;;;5090151;28;20064;-78
2021/09/23 08:44:04;;;;;;;2.88;1.60;;;;;;;;;;5089200;28;20810;-78
2021/09/23 08:46:34;;;;;;;2.42;1.50;;;;;;;;;;5087680;28;20075;-78
2021/09/23 08:49:00;;;;;;;2.45;1.40;;;;;;;;;;5079711;28;20542;-78
2021/09/23 08:51:30;;;;;;;2.63;1.50;;;;;;;;;;5070487;28;20056;-78
2021/09/23 08:53:56;;;;;;;3.45;1.67;;;;;;;;;;5081234;28;20048;-78
2021/09/23 08:56:23;;;;;;;3.65;1.52;;;;;;;;;;5056547;28;20064;-78
2021/09/23 08:58:50;;;;;;;3.13;1.50;;;;;;;;;;5064909;28;20399;-78
2021/09/23 09:01:23;;;;;;;2.92;1.30;;;;;;;;;;5057189;28;20062;-78
2021/09/23 09:04:00;;;;;;;2.78;1.38;;;;;;;;;;5080665;28;20064;-78
2021/09/23 09:06:26;;;;;;;4.43;1.50;;;;;;;;;;5057321;28;20075;-78
2021/09/23 09:08:53;;;;;;;3.38;1.70;;;;;;;;;;5057524;28;20485;-78
2021/09/23 09:11:19;;;;;;;2.65;1.38;;;;;;;;;;5068952;28;20150;-78
2021/09/23 09:13:47;;;;;;;2.30;1.25;;;;;;;;;;5076222;28;20032;-78
2021/09/23 09:16:15;;;;;;;1.95;1.13;;;;;;;;;;5087417;28;20075;-78
2021/09/23 09:18:42;;;;;;;2.58;1.33;;;;;;;;;;5084283;28;20032;-78
2021/09/23 09:21:11;;;;;;;3.28;1.40;;;;;;;;;;5083716;28;20065;-78
2021/09/23 09:23:39;;;;;;;2.72;1.58;;;;;;;;;;5081833;28;20040;-78
2021/09/23 09:26:06;;;;;;;2.72;1.50;;;;;;;;;;5089375;28;20050;-78
2021/09/23 09:28:32;;;;;;;2.58;1.50;;;;;;;;;;5070109;28;20059;-78
2021/09/23 09:31:00;;;;;;;2.90;1.45;;;;;;;;;;5068704;28;20064;-78
2021/09/23 09:33:36;;;;;;;2.53;1.30;;;;;;;;;;5082427;28;20524;-78
2021/09/23 09:36:04;;;;;;;2.03;1.40;;;;;;;;;;5082580;28;20073;-78
2021/09/23 09:38:32;;;;;;;2.42;1.40;;;;;;;;;;5088823;28;20060;-78
2021/09/23 09:41:02;;;;;;;2.40;1.35;;;;;;;;;;5089436;28;20059;-78
2021/09/23 09:43:30;;;;;;;3.15;1.25;;;;;;;;;;5087712;28;20875;-78
2021/09/23 09:45:57;;;;;;;2.28;1.40;;;;;;;;;;5084127;28;20085;-78
2021/09/23 09:48:30;;;;;;;2.05;1.17;;;;;;;;;;5081764;28;20032;-78
2021/09/23 09:51:01;;;;;;;2.15;1.30;;;;;;;;;;5085455;27;20059;-78
2021/09/23 09:53:30;;;;;;;1.80;1.42;;;;;;;;;;5087774;28;20117;-78
2021/09/23 09:55:56;;;;;;;1.88;1.10;;;;;;;;;;5084530;28;20117;-81
2021/09/23 09:58:24;;;;;;;3.40;1.40;;;;;;;;;;5086978;28;20067;-81
2021/09/23 10:00:51;;;;;;;3.25;1.30;;;;;;;;;;5085606;28;20557;-80
2021/09/23 10:03:20;;;;;;;2.60;1.50;;;;;;;;;;5078057;28;20047;-81
2021/09/23 10:05:47;;;;;;;2.63;1.20;;;;;;;;;;5087711;28;20122;-81
2021/09/23 10:08:14;;;;;;;2.28;1.20;;;;;;;;;;5082251;28;20112;-82
2021/09/23 10:10:41;;;;;;;2.58;1.38;;;;;;;;;;5085916;28;20028;-81
2021/09/23 10:13:08;;;;;;;3.65;1.70;;;;;;;;;;5060070;28;20059;-81
2021/09/23 10:15:35;;;;;;;3.30;1.58;;;;;;;;;;5075896;28;20061;-81
2021/09/23 10:18:03;;;;;;;2.38;1.38;;;;;;;;;;5083930;28;20519;-81
2021/09/23 10:20:30;;;;;;;1.80;1.27;;;;;;;;;;5084202;28;20051;-81
2021/09/23 10:22:57;;;;;;;2.65;1.60;;;;;;;;;;5081601;28;20560;-81
2021/09/23 10:25:26;;;;;;;2.83;1.27;;;;;;;;;;5072618;28;20467;-82
2021/09/23 10:28:03;;;;;;;1.70;1.15;;;;;;;;;;5074364;28;20079;-81
2021/09/23 10:30:32;;;;;;;3.35;1.30;;;;;;;;;;5087663;28;20056;-82
2021/09/23 10:32:59;;;;;;;2.42;1.38;;;;;;;;;;5067692;28;20113;-82
2021/09/23 10:35:26;;;;;;;1.50;1.00;;;;;;;;;;5085777;28;20051;-82
2021/09/23 10:37:57;;;;;;;2.05;1.20;;;;;;;;;;5065725;28;20059;-81
2021/09/23 10:40:24;;;;;;;3.30;1.25;;;;;;;;;;5068516;28;20695;-82
2021/09/23 10:42:52;;;;;;;3.63;1.60;;;;;;;;;;5071060;28;20063;-82
2021/09/23 10:45:22;;;;;;;1.65;0.98;;;;;;;;;;5070998;28;20082;-82
2021/09/23 10:47:49;;;;;;;2.22;1.30;;;;;;;;;;5081444;28;20500;-82
2021/09/23 10:50:22;;;;;;;3.33;1.42;;;;;;;;;;5065480;28;20064;-82
2021/09/23 10:52:50;;;;;;;2.85;1.30;;;;;;;;;;5061643;28;20074;-82
2021/09/23 10:55:16;;;;;;;1.55;1.10;;;;;;;;;;5072903;28;20060;-82
2021/09/23 10:57:44;;;;;;;1.90;1.00;;;;;;;;;;5062017;28;20113;-82
2021/09/23 11:00:11;;;;;;;2.42;1.30;;;;;;;;;;5085103;28;20040;-82
2021/09/23 11:02:37;;;;;;;4.00;1.60;;;;;;;;;;5086619;28;20159;-82
2021/09/23 11:05:09;;;;;;;1.88;1.02;;;;;;;;;;5074937;28;20094;-82
2021/09/23 11:07:36;;;;;;;2.42;1.40;;;;;;;;;;5072642;28;20036;-81
2021/09/23 11:10:08;;;;;;;2.00;1.10;;;;;;;;;;5074751;28;20044;-82
2021/09/23 11:12:35;;;;;;;2.67;1.10;;;;;;;;;;5084186;28;20075;-82
2021/09/23 11:15:02;;;;;;;2.35;1.17;;;;;;;;;;5081001;28;20064;-82
2021/09/23 11:17:28;;;;;;;2.17;1.17;;;;;;;;;;5064023;28;20072;-82
2021/09/23 11:20:03;;;;;;;2.83;1.10;;;;;;;;;;5079596;28;20071;-81
2021/09/23 11:22:32;;;;;;;3.35;1.33;;;;;;;;;;5083694;28;20287;-81
2021/09/23 11:25:00;;;;;;;2.03;1.33;;;;;;;;;;5081340;28;20636;-82
2021/09/23 11:27:26;;;;;;;2.97;1.25;;;;;;;;;;5082676;28;20032;-82
2021/09/23 11:29:52;;;;;;;1.90;1.00;;;;;;;;;;5068633;28;20429;-82
2021/09/23 11:32:20;;;;;;;2.78;1.10;;;;;;;;;;5087486;28;20044;-82
2021/09/23 11:34:55;;;;;;;2.80;0.85;;;;;;;;;;5073123;28;20106;-83
2021/09/23 11:37:27;;;;;;;2.10;0.95;;;;;;;;;;5056410;28;20425;-82
2021/09/23 11:39:57;;;;;;;1.73;1.17;;;;;;;;;;5083115;28;20557;-81
2021/09/23 11:42:25;;;;;;;1.90;0.93;;;;;;;;;;5067860;28;20060;-82
2021/09/23 11:44:51;;;;;;;1.98;0.98;;;;;;;;;;5086438;28;20032;-82
2021/09/23 11:47:19;;;;;;;1.90;0.93;;;;;;;;;;5067524;28;20666;-82
2021/09/23 11:49:49;;;;;;;1.50;0.90;;;;;;;;;;5081482;28;20064;-82
2021/09/23 11:52:16;;;;;;;2.07;0.93;;;;;;;;;;5063666;28;20722;-82
2021/09/23 11:54:42;;;;;;;1.42;0.70;;;;;;;;;;5043558;28;20086;-82
2021/09/23 11:57:14;;;;;;;2.33;0.80;;;;;;;;;;5062030;28;20060;-82
2021/09/23 11:59:41;;;;;;;2.10;0.90;;;;;;;;;;5060036;28;20059;-82
2021/09/23 12:02:07;;;;;;;2.25;1.00;;;;;;;;;;5082939;28;20052;-82
2021/09/23 12:04:34;;;;;;;1.20;0.68;;;;;;;;;;5086379;28;20585;-82
2021/09/23 12:07:04;;;;;;;1.23;0.80;;;;;;;;;;5081522;28;20071;-82
2021/09/23 12:09:33;;;;;;;2.08;0.85;;;;;;;;;;5062600;28;20032;-82
2021/09/23 12:12:00;;;;;;;1.73;0.93;;;;;;;;;;5064515;28;20024;-82
2021/09/23 12:14:26;;;;;;;2.33;0.90;;;;;;;;;;5083313;28;20063;-82
2021/09/23 12:17:02;;;;;;;1.42;0.70;;;;;;;;;;5071111;28;20059;-82
2021/09/23 12:19:29;;;;;;;2.25;0.90;;;;;;;;;;5056423;28;20064;-82
2021/09/23 12:21:58;;;;;;;1.67;0.77;;;;;;;;;;5068771;28;20137;-82
2021/09/23 12:24:35;;;;;;;0.95;0.65;;;;;;;;;;5060946;28;20056;-83
2021/09/23 12:27:01;;;;;;;1.80;0.80;;;;;;;;;;5069176;28;20052;-82
2021/09/23 12:29:28;;;;;;;2.10;0.80;;;;;;;;;;5071142;28;20412;-82
2021/09/23 12:32:21;;;;;;;3.35;0.75;;;;;;;;;;5052945;28;20040;-82
2021/09/23 12:34:48;;;;;;;0.90;0.57;;;;;;;;;;5066317;28;20064;-82
2021/09/23 12:37:15;;;;;;;1.75;0.70;;;;;;;;;;5079517;28;20067;-82
2021/09/23 12:39:43;;;;;;;2.20;1.05;;;;;;;;;;5070590;28;20085;-82
2021/09/23 12:42:13;;;;;;;2.42;0.90;;;;;;;;;;5084806;28;20043;-82
2021/09/23 12:44:41;;;;;;;3.45;0.93;;;;;;;;;;5088925;28;20516;-82
2021/09/23 12:47:09;;;;;;;1.48;0.70;;;;;;;;;;5088181;28;20066;-82
2021/09/23 12:49:41;;;;;;;1.30;0.70;;;;;;;;;;5069447;28;20036;-83
2021/09/23 12:52:12;;;;;;;1.27;0.75;;;;;;;;;;5086391;28;20028;-82
2021/09/23 12:54:46;;;;;;;1.70;0.77;;;;;;;;;;5086366;28;20032;-82
2021/09/23 12:57:16;;;;;;;1.88;0.85;;;;;;;;;;5070085;28;21460;-82
2021/09/23 12:59:43;;;;;;;1.88;0.80;;;;;;;;;;5082123;28;20086;-82
2021/09/23 13:02:16;;;;;;;2.47;0.90;;;;;;;;;;5087544;28;20557;-82
2021/09/23 13:04:44;;;;;;;1.30;0.60;;;;;;;;;;5083340;28;20063;-82
2021/09/23 13:07:17;;;;;;;1.55;0.65;;;;;;;;;;5066300;28;20029;-82
2021/09/23 13:09:59;;;;;;;2.35;0.80;;;;;;;;;;5087389;28;20508;-82
2021/09/23 13:12:36;;;;;;;2.10;0.80;;;;;;;;;;5084073;28;21141;-82
2021/09/23 13:15:19;;;;;;;2.50;0.73;;;;;;;;;;5077424;28;20036;-82
2021/09/23 13:17:57;;;;;;;1.50;0.60;;;;;;;;;;5063205;28;20065;-82
2021/09/23 13:20:24;;;;;;;2.35;0.93;;;;;;;;;;5085133;28;20044;-82
2021/09/23 13:22:50;;;;;;;2.20;1.00;;;;;;;;;;5077943;28;20072;-81
2021/09/23 13:25:17;;;;;;;2.38;0.68;;;;;;;;;;5061625;28;20036;-82
2021/09/23 13:27:43;;;;;;;1.95;0.60;;;;;;;;;;5071872;28;20063;-82
2021/09/23 13:30:14;;;;;;;1.38;0.60;;;;;;;;;;5096920;28;20094;-82
2021/09/23 13:32:40;;;;;;;2.65;0.75;;;;;;;;;;5085932;28;20052;-82
2021/09/23 13:35:08;;;;;;;1.52;0.80;;;;;;;;;;5055902;28;20033;-82
2021/09/23 13:37:34;;;;;;;2.30;0.70;;;;;;;;;;5082317;28;20456;-82
2021/09/23 13:40:00;;;;;;;2.03;0.60;;;;;;;;;;5072165;28;20558;-82
2021/09/23 13:42:27;;;;;;;1.77;0.68;;;;;;;;;;5068414;28;20075;-82
2021/09/23 13:44:53;;;;;;;3.10;1.00;;;;;;;;;;5067455;28;20064;-81
2021/09/23 13:47:20;;;;;;;3.17;1.10;;;;;;;;;;5088640;28;20036;-82
2021/09/23 13:49:46;;;;;;;1.70;0.70;;;;;;;;;;5086994;28;20071;-81
2021/09/23 13:52:13;;;;;;;1.58;0.68;;;;;;;;;;5064221;28;20071;-81
2021/09/23 13:54:41;;;;;;;1.30;0.80;;;;;;;;;;5077505;28;20524;-81
2021/09/23 13:57:08;;;;;;;2.65;0.82;;;;;;;;;;5070467;28;20060;-81
2021/09/23 13:59:34;;;;;;;0.95;0.60;;;;;;;;;;5054544;28;20067;-81
2021/09/23 14:02:01;;;;;;;2.42;0.80;;;;;;;;;;5062803;28;20050;-81
2021/09/23 14:04:27;;;;;;;1.48;0.70;;;;;;;;;;5079995;28;20048;-81
2021/09/23 14:06:54;;;;;;;2.20;0.85;;;;;;;;;;5058353;28;20025;-80
2021/09/23 14:09:20;;;;;;;1.40;0.70;;;;;;;;;;5067740;28;20037;-81
2021/09/23 14:11:46;;;;;;;3.10;0.80;;;;;;;;;;5061248;28;20067;-81
2021/09/23 14:14:13;;;;;;;2.50;0.88;;;;;;;;;;5064627;28;20646;-81
2021/09/23 14:16:39;;;;;;;1.42;0.70;;;;;;;;;;5073020;28;20064;-81
2021/09/23 14:19:06;;;;;;;2.38;0.90;;;;;;;;;;5055146;28;20056;-81
2021/09/23 14:21:33;;;;;;;2.70;1.00;;;;;;;;;;5063632;28;20059;-81
2021/09/23 14:24:01;;;;;;;1.92;0.80;;;;;;;;;;5059690;28;20075;-81
2021/09/23 14:26:28;;;;;;;2.67;1.10;;;;;;;;;;5071288;28;20048;-80
2021/09/23 14:28:59;;;;;;;4.50;1.23;;;;;;;;;;5068935;28;20129;-80
2021/09/23 14:31:26;;;;;;;4.28;1.40;;;;;;;;;;5067184;28;20058;-80
2021/09/23 14:33:54;;;;;;;2.25;1.17;;;;;;;;;;5083179;28;20521;-81
2021/09/23 14:36:20;;;;;;;4.07;1.00;;;;;;;;;;5066840;28;20036;-82
2021/09/23 14:38:50;;;;;;;3.47;1.20;;;;;;;;;;5062586;28;20072;-76
2021/09/23 14:41:18;;;;;;;2.90;1.05;;;;;;;;;;5061422;28;20156;-75
2021/09/23 14:43:45;;;;;;;2.33;0.80;;;;;;;;;;5081067;28;20448;-75
2021/09/23 14:46:12;;;;;;;3.13;1.05;;;;;;;;;;5078773;28;20192;-75